This is the latest recevied weather packets stored in our database for station/object PD2BVG. If no packets are shown the sender has not sent any weather packets the latest 10 day(s).
| Time | Temp. | Humidity | Pressure | Rain* | Wind** | Luminosity | Snow |
|---|---|---|---|---|---|---|---|
| 1787866734 | 18.89° C | 100% | 1008.5 hPa | 0.25 mm | - | 0 W/m² | - |
| 1787866674 | 18.89° C | 100% | 1008.5 hPa | 0.25 mm | - | 0 W/m² | - |
| 1787866615 | 18.89° C | 100% | 1008.5 hPa | 0.25 mm | - | 0 W/m² | - |
| 1787866556 | 18.89° C | 100% | 1008.4 hPa | 0.51 mm | - | 0 W/m² | - |
| 1787866493 | 18.89° C | 100% | 1008.2 hPa | 0.51 mm | - | 0 W/m² | - |
| 1787866432 | 18.89° C | 100% | 1008.2 hPa | 0.51 mm | - | 0 W/m² | - |
| 1787866373 | 18.89° C | 100% | 1008.2 hPa | 1.02 mm | - | 0 W/m² | - |
| 1787866312 | 18.89° C | 100% | 1008.1 hPa | 1.52 mm | - | 0 W/m² | - |
| 1787866252 | 18.89° C | 100% | 1008.1 hPa | 1.52 mm | - | 0 W/m² | - |
| 1787866192 | 18.89° C | 100% | 1008 hPa | 1.78 mm | - | 0 W/m² | - |
| 1787866132 | 18.89° C | 100% | 1008.1 hPa | 2.03 mm | - | 0 W/m² | - |
| 1787866073 | 18.89° C | 100% | 1008 hPa | 2.29 mm | - | 0 W/m² | - |
| 1787866014 | 18.89° C | 100% | 1008.1 hPa | 2.54 mm | - | 0 W/m² | - |
| 1787865956 | 18.89° C | 100% | 1007.9 hPa | 2.54 mm | - | 0 W/m² | - |
| 1787865892 | 18.89° C | 100% | 1007.9 hPa | 2.79 mm | - | 0 W/m² | - |
| 1787865833 | 18.89° C | 100% | 1007.9 hPa | 3.3 mm | - | 0 W/m² | - |
| 1787865772 | 18.89° C | 99% | 1007.9 hPa | 3.3 mm | - | 0 W/m² | - |
| 1787865713 | 18.89° C | 99% | 1007.8 hPa | 3.56 mm | - | 0 W/m² | - |
| 1787865653 | 18.89° C | 99% | 1007.8 hPa | 3.81 mm | - | 0 W/m² | - |
| 1787865594 | 18.89° C | 99% | 1007.7 hPa | 3.81 mm | - | 0 W/m² | - |
| 1787865533 | 18.89° C | 99% | 1007.7 hPa | 4.06 mm | - | 0 W/m² | - |
| 1787865473 | 18.89° C | 99% | 1007.8 hPa | 4.32 mm | - | 0 W/m² | - |
| 1787865412 | 18.89° C | 99% | 1007.9 hPa | 4.57 mm | - | 0 W/m² | - |
| 1787865355 | 18.89° C | 99% | 1007.9 hPa | 5.08 mm | - | 0 W/m² | - |
| 1787865292 | 18.89° C | 99% | 1008.4 hPa | 5.84 mm | - | 0 W/m² | - |
* Rain latest hour (hover to see other rain measurements)
** Current wind speed in m/s (hover to see current wind gust speed)